Airfield :
LOGIN :

Register | Disclaimer

   EN    FR    IT 

 










Legend :    VFR   Marginal VFR   IFR   Intensive IFR   Very Intensive IFR
Visi :
Ceiling :
>= 8 km
>= 3000ft
5 to 8 km
1000 to 3000 ft
1500m to 5 km
500 to 1000 ft
800 to 1500m
200 to 500 ft
< 800m
< 200 ft
Symbols :   Thunderstorms  Fog  Heavy snow  Heavy precipitations  Wind > 20 kt
SIGMETs :     Misc.  Thunderstorms  Icing  Turbulence  Mountain Waves  Volcanic Ashes






- Airport Elevation : 863 ft
- IATA code : ZAZ


LEZG - Zaragoza Aragon

CURRENT METAR :
  • 101200Z 10009KT 060V150 9999 FEW020 OVC070 15/08 Q1014

EXPIRED METARs :
  • 101130Z 11010KT 9999 FEW020 OVC070 14/09 Q1014
  • 101100Z 12007KT 080V150 9999 SCT020 OVC060 13/09 Q1015
  • 101030Z 11008KT 080V140 9999 BKN015 OVC060 13/09 Q1015
  • 101000Z 11008KT 090V150 9999 OVC015 13/09 Q1015
  • 100930Z 12009KT 080V150 9999 OVC014 12/09 Q1015
  • 100900Z 11008KT 080V140 9999 OVC014 11/09 Q1015

TAF TAF LEZG
Valid from the 10 at 12:00 until the 11 at 12:00 UTC


101100Z 1012/1112 10010KT 9999 SCT015 BKN060 TX20/1015Z TN07/1106Z
PROB40
TEMPO 1013/1021 VRB15G25KT 4000 TSRA FEW040CB
BECMG 1023/1101 VRB03KT
BECMG 1109/1111 31014KT
TEMPO 1105/1112 4000 RA BKN010



MET'MAP, your aeronautical weather chart ! - Copyright ORBIFLY December 2007 - Disclaimer

ORBIFLY MET'MAP TEAM :

Programming & Development : Alexandra Zaïnal
Concept & original design : Baudouin d'Aumeries
Assistance for programming : Marc-Olivier Méhu
Technical & hardware support : Manuel Goepfert

Contact : metmap@orbifly.com




SOURCES & CREDITS :

   NOAA